Tucson, AZ

11:07 AM MST on January 21, 2017 (GMT -0700)
Feldmans | | Change Station

Elev 2389 ft 32.24 °N, 110.97 °W | Updated 36 seconds ago

Rain
Rain
49.3 °F
Feels Like 48 °F
N
4.5
Wind Variable Wind from NNE
Gusts 7.4 mph

Today
High -- | Low -- °F
--% Chance of Precip.
Yesterday
High -- | Low -- °F
Precip. -- in
Pressure 29.78 in
Visibility 10.0 miles
Clouds Mostly Cloudy 3900 ft
Mostly Cloudy 16000 ft
Windchill 48 °F
Dew Point 36 °F
Humidity 60%
Rainfall 0.30 in
Snow Depth Not available.
7:23 AM 5:47 PM
Waning Crescent, 33% visible
METAR KDMA 211758Z AUTO 28018G27KT 10SM BKN039 BKN160 10/02 A2982 RMK AO2 PK WND 25031/42 SLP084 T01020019 10105 20087 52034 $
Pressure 29.78 in
Visibility 10.0 miles
Clouds Mostly Cloudy 3900 ft
Mostly Cloudy 16000 ft
Windchill 48 °F
Dew Point 36 °F
Humidity 60%
Rainfall 0.30 in
Snow Depth Not available.
7:23 AM 5:47 PM
Waning Crescent, 33% visible
METAR KDMA 211758Z AUTO 28018G27KT 10SM BKN039 BKN160 10/02 A2982 RMK AO2 PK WND 25031/42 SLP084 T01020019 10105 20087 52034 $

Get Your Daily Forecast Email!

Thanks for signing up!

Be on the lookout for a verification email in your inbox.

You'll start receiving the daily forecast at 8 AM.

×

10-Day Weather Forecast

Almanac

Astronomy

Jan. 21, 2017 Rise Set
Actual Time
Civil Twilight
Nautical Twilight
Astronomical Twilight
Moon
Length of Visible Light
Length of Day
Tomorrow will be .
, % of the Moon is Illuminated

Today's Extremes

State Highs State Lows

Community

WunderPhotos

Upload Photos

1,962,540 photos uploaded!

WunderBlog® & News

Nearby

Air Quality

  Air Quality AQ Index Pollutant
Not available.

Snow Depth

Station Depth Elevation

Earthquake Activity

City Distance Mag. Time & Date
Minimum magnitude displayed is 2.5.

Coastal Water Temperatures

Place Temperature

Stations

Nearby Weather Stations

Station Location Temp. Windchill Dew Point Humidity Wind Precip. Elev Updated Type
                   

Watches & Warnings

There are currently no watches in effect.